Time;durP1;ratioP1;P1;durP2;ratioP2;P2;SDS_P1;SDS_P2;PMS_P1;PMS_P2;Temp;Humidity;BMP_temperature;BMP_pressure;BME280_temperature;BME280_humidity;BME280_pressure;Samples;Min_cycle;Max_cycle;Signal;HPM_P1;HPM_P2
2023/04/24 00:00:17;;;;;;;14.90;5.55;;;;;;;;;;5119758;28;20019;-89
2023/04/24 00:02:47;;;;;;;8.13;5.63;;;;;;;;;;5099053;28;20020;-88
2023/04/24 00:05:17;;;;;;;15.30;6.32;;;;;;;;;;5098504;28;20387;-88
2023/04/24 00:07:46;;;;;;;8.82;5.60;;;;;;;;;;5099184;28;20444;-89
2023/04/24 00:13:29;;;;;;;8.35;5.80;;;;;;;;;;5099359;28;20031;-88
2023/04/24 00:15:56;;;;;;;13.48;5.47;;;;;;;;;;5100511;28;20051;-89
2023/04/24 00:18:22;;;;;;;6.65;5.10;;;;;;;;;;5118195;28;20059;-88
2023/04/24 00:20:48;;;;;;;10.15;5.53;;;;;;;;;;5119472;28;20024;-89
2023/04/24 00:23:14;;;;;;;11.38;5.60;;;;;;;;;;5103001;28;20315;-89
2023/04/24 00:25:40;;;;;;;9.55;5.55;;;;;;;;;;5100611;28;20318;-89
2023/04/24 00:28:06;;;;;;;8.55;5.38;;;;;;;;;;5119578;28;20023;-89
2023/04/24 00:30:32;;;;;;;11.52;6.38;;;;;;;;;;5118487;28;20020;-89
2023/04/24 00:32:59;;;;;;;9.05;6.05;;;;;;;;;;5101825;28;20028;-89
2023/04/24 00:35:25;;;;;;;8.85;6.20;;;;;;;;;;5098666;28;20035;-90
2023/04/24 00:37:51;;;;;;;9.00;5.78;;;;;;;;;;5097692;28;20036;-87
2023/04/24 00:40:35;;;;;;;7.65;5.85;;;;;;;;;;5108646;28;20019;-88
2023/04/24 00:43:01;;;;;;;10.73;6.40;;;;;;;;;;5104918;28;20032;-89
2023/04/24 00:45:27;;;;;;;9.88;6.30;;;;;;;;;;5097594;28;20056;-90
2023/04/24 00:47:54;;;;;;;9.75;5.85;;;;;;;;;;5104274;28;20449;-89
2023/04/24 00:50:21;;;;;;;10.07;6.22;;;;;;;;;;5098942;28;20089;-89
2023/04/24 00:52:47;;;;;;;9.00;5.38;;;;;;;;;;5112354;28;20407;-88
2023/04/24 00:58:17;;;;;;;8.90;5.53;;;;;;;;;;5114711;28;20322;-89
2023/04/24 01:00:43;;;;;;;8.25;5.78;;;;;;;;;;5109269;28;20107;-89
2023/04/24 01:03:10;;;;;;;10.30;6.30;;;;;;;;;;5119156;28;20031;-90
2023/04/24 01:05:36;;;;;;;10.95;6.00;;;;;;;;;;5116700;28;20032;-90
2023/04/24 01:08:03;;;;;;;9.88;5.68;;;;;;;;;;5117354;28;20043;-90
2023/04/24 01:13:33;;;;;;;9.32;5.68;;;;;;;;;;5098430;28;20031;-91
2023/04/24 01:16:00;;;;;;;10.38;5.82;;;;;;;;;;5097132;28;20036;-90
2023/04/24 01:18:26;;;;;;;11.65;5.88;;;;;;;;;;5097280;28;20441;-90
2023/04/24 01:20:54;;;;;;;8.20;5.82;;;;;;;;;;5108739;28;20050;-90
2023/04/24 01:23:20;;;;;;;10.38;6.18;;;;;;;;;;5118606;28;20065;-91
2023/04/24 01:25:46;;;;;;;7.93;5.80;;;;;;;;;;5117896;28;20069;-91
2023/04/24 01:28:13;;;;;;;9.23;6.07;;;;;;;;;;5102204;28;20028;-90
2023/04/24 01:30:40;;;;;;;8.95;6.20;;;;;;;;;;5110417;28;20036;-92
2023/04/24 01:33:06;;;;;;;7.55;5.80;;;;;;;;;;5096644;28;20123;-91
2023/04/24 01:35:32;;;;;;;10.55;5.82;;;;;;;;;;5113311;28;20413;-90
2023/04/24 01:37:58;;;;;;;10.00;6.03;;;;;;;;;;5118107;28;20414;-91
2023/04/24 01:40:24;;;;;;;12.52;6.10;;;;;;;;;;5103230;28;20020;-91
2023/04/24 01:42:51;;;;;;;8.98;5.80;;;;;;;;;;5096910;28;20425;-91
2023/04/24 01:45:17;;;;;;;10.00;6.15;;;;;;;;;;5097460;28;20126;-91
2023/04/24 01:47:44;;;;;;;9.23;6.07;;;;;;;;;;5097952;28;20016;-90
2023/04/24 01:50:10;;;;;;;10.45;5.88;;;;;;;;;;5114205;28;20417;-90
2023/04/24 01:52:37;;;;;;;10.10;6.30;;;;;;;;;;5117296;28;20491;-90
2023/04/24 01:55:03;;;;;;;10.57;6.15;;;;;;;;;;5117974;28;20032;-90
2023/04/24 01:57:30;;;;;;;8.45;5.65;;;;;;;;;;5112241;28;20035;-91
2023/04/24 01:59:56;;;;;;;7.65;5.80;;;;;;;;;;5099223;28;20097;-90
2023/04/24 02:02:23;;;;;;;10.32;5.75;;;;;;;;;;5097547;28;20395;-90
2023/04/24 02:04:50;;;;;;;9.45;5.88;;;;;;;;;;5097662;28;20132;-89
2023/04/24 02:07:16;;;;;;;9.60;5.97;;;;;;;;;;5102344;28;20020;-90
2023/04/24 02:09:42;;;;;;;14.15;5.85;;;;;;;;;;5100844;28;20028;-90
2023/04/24 02:12:08;;;;;;;9.90;5.85;;;;;;;;;;5112599;28;20040;-90
2023/04/24 02:14:34;;;;;;;8.10;6.00;;;;;;;;;;5122193;28;20027;-90
2023/04/24 02:17:00;;;;;;;7.90;5.82;;;;;;;;;;5112542;28;20160;-90
2023/04/24 02:19:27;;;;;;;14.65;6.20;;;;;;;;;;5110192;28;20034;-89
2023/04/24 02:21:53;;;;;;;11.98;5.70;;;;;;;;;;5120903;28;20450;-89
2023/04/24 02:24:19;;;;;;;16.63;6.25;;;;;;;;;;5121505;28;20023;-88
2023/04/24 02:26:45;;;;;;;12.57;6.32;;;;;;;;;;5109471;28;20032;-90
2023/04/24 02:29:11;;;;;;;10.20;6.45;;;;;;;;;;5100241;28;20084;-90
2023/04/24 02:31:37;;;;;;;10.98;6.13;;;;;;;;;;5099980;28;20036;-90
2023/04/24 02:34:03;;;;;;;11.48;6.68;;;;;;;;;;5114592;28;20027;-90
2023/04/24 02:36:30;;;;;;;13.13;6.60;;;;;;;;;;5121855;28;20024;-90
2023/04/24 02:42:12;;;;;;;9.80;6.25;;;;;;;;;;5121651;27;20492;-89
2023/04/24 02:44:38;;;;;;;11.45;6.45;;;;;;;;;;5120304;28;20055;-88
2023/04/24 02:47:05;;;;;;;12.10;7.05;;;;;;;;;;5121396;28;20333;-89
2023/04/24 02:49:31;;;;;;;11.43;6.88;;;;;;;;;;5121314;28;20400;-89
2023/04/24 02:51:57;;;;;;;9.93;6.85;;;;;;;;;;5120954;28;20042;-88
2023/04/24 02:55:00;;;;;;;8.98;6.78;;;;;;;;;;5108022;28;20295;-89
2023/04/24 02:57:26;;;;;;;13.40;8.07;;;;;;;;;;5100906;28;20073;-88
2023/04/24 02:59:52;;;;;;;10.25;7.25;;;;;;;;;;5100626;28;20059;-89
2023/04/24 03:02:18;;;;;;;10.48;8.07;;;;;;;;;;5100840;28;20027;-88
2023/04/24 03:04:44;;;;;;;14.25;7.75;;;;;;;;;;5099951;28;20020;-90
2023/04/24 03:07:10;;;;;;;10.73;7.68;;;;;;;;;;5118384;28;20409;-90
2023/04/24 03:16:11;;;;;;;11.85;7.60;;;;;;;;;;5120890;28;20096;-89
2023/04/24 03:18:37;;;;;;;11.00;7.28;;;;;;;;;;5120204;28;20098;-88
2023/04/24 03:21:03;;;;;;;13.50;7.78;;;;;;;;;;5120905;28;20031;-89
2023/04/24 03:23:29;;;;;;;13.30;8.00;;;;;;;;;;5103537;28;20035;-89
2023/04/24 03:28:59;;;;;;;15.63;7.53;;;;;;;;;;5100569;28;20064;-89
2023/04/24 03:31:25;;;;;;;9.80;7.28;;;;;;;;;;5116210;28;20016;-90
2023/04/24 03:33:51;;;;;;;15.23;7.65;;;;;;;;;;5105702;28;20032;-90
2023/04/24 03:36:18;;;;;;;12.23;7.47;;;;;;;;;;5103883;28;20030;-92
2023/04/24 03:38:45;;;;;;;10.93;7.43;;;;;;;;;;5117093;28;20034;-90
2023/04/24 03:41:11;;;;;;;8.85;6.82;;;;;;;;;;5099015;28;20322;-91
2023/04/24 03:43:38;;;;;;;9.93;7.35;;;;;;;;;;5098811;28;20307;-91
2023/04/24 03:46:04;;;;;;;11.27;7.75;;;;;;;;;;5109731;28;20028;-91
2023/04/24 03:48:30;;;;;;;10.90;7.30;;;;;;;;;;5119266;28;20059;-89
2023/04/24 03:50:56;;;;;;;10.70;7.20;;;;;;;;;;5119316;28;20428;-90
2023/04/24 03:53:22;;;;;;;14.05;7.32;;;;;;;;;;5119201;28;20029;-90
2023/04/24 03:58:52;;;;;;;13.85;7.15;;;;;;;;;;5140867;27;20034;-90
2023/04/24 04:01:20;;;;;;;9.80;7.35;;;;;;;;;;5140918;27;20019;-90
2023/04/24 04:03:46;;;;;;;11.88;6.82;;;;;;;;;;5140468;27;20102;-91
2023/04/24 04:06:12;;;;;;;10.32;7.13;;;;;;;;;;5127763;27;20039;-90
2023/04/24 04:08:39;;;;;;;9.75;7.63;;;;;;;;;;5119933;28;20115;-91
2023/04/24 04:11:05;;;;;;;10.93;7.35;;;;;;;;;;5120038;28;20290;-90
2023/04/24 04:13:31;;;;;;;10.38;6.97;;;;;;;;;;5119725;28;20027;-91
2023/04/24 04:15:57;;;;;;;12.50;7.30;;;;;;;;;;5118756;28;20040;-91
2023/04/24 04:18:23;;;;;;;10.35;7.20;;;;;;;;;;5119643;28;20057;-91
2023/04/24 04:20:49;;;;;;;10.48;6.63;;;;;;;;;;5118297;28;20104;-90
2023/04/24 04:23:15;;;;;;;12.73;7.43;;;;;;;;;;5120010;28;20073;-91
2023/04/24 04:25:41;;;;;;;11.02;7.10;;;;;;;;;;5111399;28;20040;-90
2023/04/24 04:28:07;;;;;;;14.00;8.07;;;;;;;;;;5099373;28;20020;-90
2023/04/24 04:30:33;;;;;;;12.38;7.05;;;;;;;;;;5098047;28;20123;-90
2023/04/24 04:33:00;;;;;;;10.65;7.20;;;;;;;;;;5099250;28;20028;-89
2023/04/24 04:35:26;;;;;;;9.55;7.30;;;;;;;;;;5097936;28;20111;-90
2023/04/24 04:37:52;;;;;;;10.48;7.22;;;;;;;;;;5097779;28;20409;-90
2023/04/24 04:40:18;;;;;;;16.48;7.60;;;;;;;;;;5098929;28;20406;-89
2023/04/24 04:42:45;;;;;;;11.30;7.35;;;;;;;;;;5097758;28;20067;-90
2023/04/24 04:45:12;;;;;;;11.23;7.38;;;;;;;;;;5098630;28;20126;-90
2023/04/24 04:47:39;;;;;;;11.48;7.43;;;;;;;;;;5098965;28;20028;-91
2023/04/24 04:50:05;;;;;;;9.48;7.93;;;;;;;;;;5097839;28;20414;-90
2023/04/24 04:52:31;;;;;;;11.63;7.75;;;;;;;;;;5097729;28;20024;-90
2023/04/24 04:54:58;;;;;;;10.68;7.55;;;;;;;;;;5097431;28;20039;-90
2023/04/24 04:57:24;;;;;;;12.85;7.28;;;;;;;;;;5098496;28;20446;-90
2023/04/24 04:59:50;;;;;;;12.10;6.82;;;;;;;;;;5097597;28;20035;-89
2023/04/24 05:02:16;;;;;;;11.95;7.18;;;;;;;;;;5097619;28;20012;-89
2023/04/24 05:04:42;;;;;;;10.43;7.35;;;;;;;;;;5098277;28;20024;-88
2023/04/24 05:07:08;;;;;;;13.07;8.35;;;;;;;;;;5109240;28;20024;-90
2023/04/24 05:09:34;;;;;;;10.35;7.88;;;;;;;;;;5097426;28;20024;-92
2023/04/24 05:12:01;;;;;;;14.48;8.60;;;;;;;;;;5097352;28;20020;-92
2023/04/24 05:14:27;;;;;;;12.93;9.02;;;;;;;;;;5097225;28;20052;-92
2023/04/24 05:16:54;;;;;;;12.88;9.27;;;;;;;;;;5113649;28;20047;-91
2023/04/24 05:19:20;;;;;;;12.38;8.35;;;;;;;;;;5118558;28;20027;-92
2023/04/24 05:21:46;;;;;;;12.65;8.52;;;;;;;;;;5118584;28;20335;-91
2023/04/24 05:24:12;;;;;;;13.25;9.85;;;;;;;;;;5118698;28;20027;-93
2023/04/24 05:29:55;;;;;;;13.65;8.57;;;;;;;;;;5118580;28;20038;-92
2023/04/24 05:32:21;;;;;;;14.30;8.00;;;;;;;;;;5118654;28;20409;-91
2023/04/24 05:34:47;;;;;;;11.73;7.95;;;;;;;;;;5118596;28;20027;-90
2023/04/24 05:37:13;;;;;;;11.93;7.85;;;;;;;;;;5102040;28;20030;-91
2023/04/24 05:39:41;;;;;;;11.40;8.75;;;;;;;;;;5097422;28;20140;-91
2023/04/24 05:42:07;;;;;;;12.93;7.90;;;;;;;;;;5097727;28;20028;-92
2023/04/24 05:44:33;;;;;;;16.23;8.55;;;;;;;;;;5097765;28;20089;-91
2023/04/24 05:47:00;;;;;;;9.05;7.13;;;;;;;;;;5097944;28;20024;-90
2023/04/24 05:49:26;;;;;;;10.48;7.85;;;;;;;;;;5098237;28;20360;-91
2023/04/24 05:51:52;;;;;;;11.23;7.63;;;;;;;;;;5097745;28;20115;-90
2023/04/24 05:54:18;;;;;;;11.73;8.43;;;;;;;;;;5097311;28;20024;-90
2023/04/24 05:56:45;;;;;;;11.60;8.35;;;;;;;;;;5104959;28;20061;-90
2023/04/24 05:59:11;;;;;;;11.63;7.78;;;;;;;;;;5098003;28;20027;-90
2023/04/24 06:01:37;;;;;;;13.38;9.23;;;;;;;;;;5097865;28;20027;-91
2023/04/24 06:04:04;;;;;;;14.30;9.70;;;;;;;;;;5105054;28;20062;-89
2023/04/24 06:06:31;;;;;;;16.02;10.98;;;;;;;;;;5117709;28;20040;-89
2023/04/24 06:08:58;;;;;;;14.27;10.02;;;;;;;;;;5117932;28;20023;-90
2023/04/24 06:11:24;;;;;;;19.15;10.27;;;;;;;;;;5117901;28;20028;-89
2023/04/24 06:13:51;;;;;;;14.20;9.70;;;;;;;;;;5115437;28;20043;-90
2023/04/24 06:16:17;;;;;;;16.92;9.43;;;;;;;;;;5117865;28;20110;-90
2023/04/24 06:18:44;;;;;;;17.30;9.55;;;;;;;;;;5117000;28;20024;-90
2023/04/24 06:21:10;;;;;;;11.65;9.10;;;;;;;;;;5117927;28;20044;-89
2023/04/24 06:23:36;;;;;;;13.13;9.32;;;;;;;;;;5117188;28;20031;-90
2023/04/24 06:29:07;;;;;;;15.27;10.60;;;;;;;;;;5115157;28;20100;-92
2023/04/24 06:31:36;;;;;;;14.68;10.07;;;;;;;;;;5116199;28;20477;-90
2023/04/24 06:34:03;;;;;;;13.60;9.88;;;;;;;;;;5115198;28;20035;-90
2023/04/24 06:36:29;;;;;;;14.43;10.05;;;;;;;;;;5117755;28;20038;-90
2023/04/24 06:38:55;;;;;;;17.50;12.30;;;;;;;;;;5117583;28;20019;-90
2023/04/24 06:41:21;;;;;;;17.25;12.05;;;;;;;;;;5118046;28;20032;-90
2023/04/24 06:43:47;;;;;;;15.75;10.70;;;;;;;;;;5116687;28;20035;-91
2023/04/24 06:46:13;;;;;;;14.13;10.45;;;;;;;;;;5117647;28;20035;-90
2023/04/24 06:48:40;;;;;;;14.57;9.80;;;;;;;;;;5116911;28;20027;-88
2023/04/24 06:51:06;;;;;;;12.10;8.93;;;;;;;;;;5117440;28;20024;-88
2023/04/24 06:53:32;;;;;;;13.23;9.82;;;;;;;;;;5118465;28;20043;-90
2023/04/24 06:55:58;;;;;;;12.80;9.52;;;;;;;;;;5120190;28;20102;-89
2023/04/24 06:58:25;;;;;;;11.52;9.07;;;;;;;;;;5121105;28;20044;-92
2023/04/24 07:00:51;;;;;;;10.43;9.00;;;;;;;;;;5120388;28;20031;-90
2023/04/24 07:03:17;;;;;;;14.60;8.93;;;;;;;;;;5120214;28;20068;-89
2023/04/24 07:05:43;;;;;;;12.20;8.70;;;;;;;;;;5121356;28;20027;-90
2023/04/24 07:08:11;;;;;;;16.67;9.52;;;;;;;;;;5121228;28;20024;-90
2023/04/24 07:10:37;;;;;;;12.43;9.98;;;;;;;;;;5117646;28;20029;-85
2023/04/24 07:13:03;;;;;;;15.40;9.45;;;;;;;;;;5105262;28;20035;-84
2023/04/24 07:15:30;;;;;;;13.02;9.98;;;;;;;;;;5115878;28;20321;-89
2023/04/24 07:17:56;;;;;;;16.65;10.63;;;;;;;;;;5120637;27;20020;-83
2023/04/24 07:20:22;;;;;;;12.43;9.48;;;;;;;;;;5120523;28;20031;-85
2023/04/24 07:22:49;;;;;;;17.40;10.02;;;;;;;;;;5120629;28;20072;-84
2023/04/24 07:25:15;;;;;;;14.02;10.80;;;;;;;;;;5120679;28;20036;-83
2023/04/24 07:27:41;;;;;;;16.92;10.77;;;;;;;;;;5119541;28;20023;-90
2023/04/24 07:30:08;;;;;;;20.45;13.18;;;;;;;;;;5119503;28;20418;-90
2023/04/24 07:32:34;;;;;;;16.95;11.48;;;;;;;;;;5120060;28;20341;-90
2023/04/24 07:35:01;;;;;;;20.52;11.10;;;;;;;;;;5120540;28;20034;-91
2023/04/24 07:37:27;;;;;;;16.13;10.80;;;;;;;;;;5118879;28;20610;-89
2023/04/24 07:46:00;;;;;;;22.60;11.80;;;;;;;;;;5113860;28;20085;-89
2023/04/24 07:48:26;;;;;;;14.85;11.65;;;;;;;;;;5119382;28;20063;-91
2023/04/24 07:50:52;;;;;;;17.45;12.00;;;;;;;;;;5120822;28;20444;-91
2023/04/24 07:53:19;;;;;;;16.50;11.13;;;;;;;;;;5120055;28;20454;-90
2023/04/24 07:55:45;;;;;;;19.80;14.38;;;;;;;;;;5106606;28;20055;-89
2023/04/24 07:58:11;;;;;;;16.85;11.70;;;;;;;;;;5099424;28;20099;-92
2023/04/24 08:00:37;;;;;;;16.83;12.65;;;;;;;;;;5098598;28;20303;-91
2023/04/24 08:03:03;;;;;;;21.13;13.48;;;;;;;;;;5099873;28;20050;-92
2023/04/24 08:05:29;;;;;;;21.13;14.20;;;;;;;;;;5098841;28;20032;-92
2023/04/24 08:07:56;;;;;;;14.07;11.30;;;;;;;;;;5098237;28;20024;-93
2023/04/24 08:10:23;;;;;;;14.88;11.57;;;;;;;;;;5098328;28;20032;-92
2023/04/24 08:12:49;;;;;;;15.88;11.15;;;;;;;;;;5099744;28;20038;-92
2023/04/24 08:15:15;;;;;;;16.65;11.45;;;;;;;;;;5099333;28;20105;-93
2023/04/24 08:17:41;;;;;;;19.15;10.93;;;;;;;;;;5099102;28;20020;-92
2023/04/24 08:20:13;;;;;;;18.17;11.23;;;;;;;;;;5099524;28;20020;-93
2023/04/24 08:22:39;;;;;;;21.75;12.55;;;;;;;;;;5099358;28;20020;-91
2023/04/24 08:25:05;;;;;;;15.93;12.07;;;;;;;;;;5099073;28;20107;-93
2023/04/24 08:27:31;;;;;;;19.58;12.98;;;;;;;;;;5098164;28;20054;-92
2023/04/24 08:29:58;;;;;;;19.20;13.63;;;;;;;;;;5098137;28;20024;-93
2023/04/24 08:32:25;;;;;;;23.27;14.45;;;;;;;;;;5099127;28;20077;-92
2023/04/24 08:34:52;;;;;;;22.42;15.52;;;;;;;;;;5099240;28;20376;-92
2023/04/24 08:37:18;;;;;;;15.00;12.95;;;;;;;;;;5099019;28;20052;-92
2023/04/24 08:39:44;;;;;;;18.88;12.82;;;;;;;;;;5098091;28;20020;-92
2023/04/24 08:42:27;;;;;;;15.63;12.13;;;;;;;;;;5098747;28;20016;-86
2023/04/24 08:44:53;;;;;;;19.35;12.35;;;;;;;;;;5097771;28;20487;-90
2023/04/24 08:47:20;;;;;;;17.00;12.73;;;;;;;;;;5098976;28;20309;-89
2023/04/24 08:49:48;;;;;;;20.23;13.10;;;;;;;;;;5099055;28;20027;-89
2023/04/24 08:52:14;;;;;;;17.42;13.68;;;;;;;;;;5098744;28;20020;-89
2023/04/24 08:54:43;;;;;;;18.40;13.63;;;;;;;;;;5098613;28;20032;-90
2023/04/24 08:57:11;;;;;;;20.73;15.18;;;;;;;;;;5097626;28;20073;-90
2023/04/24 08:59:38;;;;;;;20.92;16.10;;;;;;;;;;5097388;28;20050;-90
2023/04/24 09:02:05;;;;;;;24.13;16.08;;;;;;;;;;5097477;28;20024;-90
2023/04/24 09:04:31;;;;;;;33.13;20.75;;;;;;;;;;5098394;28;20024;-91
2023/04/24 09:06:58;;;;;;;20.42;14.20;;;;;;;;;;5098671;28;20113;-90
2023/04/24 09:09:25;;;;;;;18.13;13.07;;;;;;;;;;5097448;28;20409;-92
2023/04/24 09:11:53;;;;;;;18.45;14.10;;;;;;;;;;5096850;28;20073;-90
2023/04/24 09:14:20;;;;;;;18.95;14.60;;;;;;;;;;5098415;28;20088;-92
2023/04/24 09:16:46;;;;;;;17.30;12.98;;;;;;;;;;5096584;28;20023;-91
2023/04/24 09:19:12;;;;;;;15.93;13.52;;;;;;;;;;5097885;28;20028;-90
2023/04/24 09:21:40;;;;;;;19.23;14.40;;;;;;;;;;5097252;28;20024;-90
2023/04/24 09:24:07;;;;;;;16.17;13.70;;;;;;;;;;5097234;28;20046;-90
2023/04/24 09:26:35;;;;;;;18.63;12.55;;;;;;;;;;5097046;28;20118;-90
2023/04/24 09:29:01;;;;;;;18.23;12.90;;;;;;;;;;5097920;28;20103;-90
2023/04/24 09:31:29;;;;;;;22.50;12.57;;;;;;;;;;5098121;28;20040;-91
2023/04/24 09:33:55;;;;;;;14.27;11.07;;;;;;;;;;5096953;28;20115;-91
2023/04/24 09:36:33;;;;;;;16.77;12.88;;;;;;;;;;5097000;28;20095;-90
2023/04/24 09:39:02;;;;;;;19.75;13.15;;;;;;;;;;5096891;28;20144;-90
2023/04/24 09:41:29;;;;;;;14.68;12.23;;;;;;;;;;5097573;28;20070;-91
2023/04/24 09:43:59;;;;;;;19.00;12.95;;;;;;;;;;5098112;28;20144;-90
2023/04/24 09:46:33;;;;;;;16.63;12.35;;;;;;;;;;5079991;28;20056;-90
2023/04/24 09:49:08;;;;;;;17.20;12.60;;;;;;;;;;5097658;28;20039;-91
2023/04/24 09:51:38;;;;;;;17.27;12.73;;;;;;;;;;5096754;28;20441;-90
2023/04/24 09:54:25;;;;;;;14.48;12.20;;;;;;;;;;5096516;28;20106;-90
2023/04/24 09:56:51;;;;;;;18.35;12.52;;;;;;;;;;5097771;28;20103;-90
2023/04/24 09:59:18;;;;;;;17.55;12.07;;;;;;;;;;5106258;28;20020;-91
2023/04/24 10:01:45;;;;;;;20.02;12.40;;;;;;;;;;5112102;28;20027;-87
2023/04/24 10:04:18;;;;;;;15.45;11.82;;;;;;;;;;5096614;28;20413;-88
2023/04/24 10:06:44;;;;;;;18.45;13.65;;;;;;;;;;5097646;28;20032;-88
2023/04/24 10:09:13;;;;;;;17.77;14.38;;;;;;;;;;5101784;28;20024;-81
2023/04/24 10:14:43;;;;;;;19.45;14.93;;;;;;;;;;5106351;28;20141;-85
2023/04/24 10:17:09;;;;;;;19.92;14.70;;;;;;;;;;5106777;28;20057;-93
2023/04/24 10:19:36;;;;;;;24.83;15.98;;;;;;;;;;5115863;28;20020;-81
2023/04/24 10:22:02;;;;;;;22.63;16.08;;;;;;;;;;5126409;28;20027;-82
2023/04/24 10:24:29;;;;;;;21.75;13.85;;;;;;;;;;5136707;28;20417;-81
2023/04/24 10:26:56;;;;;;;21.77;15.57;;;;;;;;;;5137910;27;20031;-82
2023/04/24 10:29:23;;;;;;;25.90;17.45;;;;;;;;;;5141896;27;20030;-82
2023/04/24 10:31:49;;;;;;;29.08;19.60;;;;;;;;;;5141745;27;20112;-82
2023/04/24 10:34:16;;;;;;;25.17;19.98;;;;;;;;;;5141517;27;20351;-82
2023/04/24 10:36:43;;;;;;;29.88;20.75;;;;;;;;;;5141605;27;20064;-82
2023/04/24 10:39:12;;;;;;;21.90;17.75;;;;;;;;;;5140562;27;20031;-82
2023/04/24 10:41:38;;;;;;;24.75;17.67;;;;;;;;;;5141569;27;20023;-82
2023/04/24 10:44:12;;;;;;;18.85;15.85;;;;;;;;;;5141328;27;20022;-82
2023/04/24 10:46:39;;;;;;;17.02;15.02;;;;;;;;;;5141312;27;20053;-82
2023/04/24 10:49:09;;;;;;;18.17;15.57;;;;;;;;;;5141426;27;20472;-82
2023/04/24 10:51:54;;;;;;;18.67;15.00;;;;;;;;;;5140282;27;20440;-82
2023/04/24 10:54:23;;;;;;;17.70;14.88;;;;;;;;;;5141464;27;20027;-82
2023/04/24 10:56:50;;;;;;;19.90;15.13;;;;;;;;;;5141143;27;20043;-82
2023/04/24 10:59:27;;;;;;;21.17;14.90;;;;;;;;;;5140084;27;20428;-82
2023/04/24 11:01:55;;;;;;;18.58;15.10;;;;;;;;;;5141175;27;20023;-82
2023/04/24 11:04:31;;;;;;;18.27;14.68;;;;;;;;;;5141460;27;20361;-82
2023/04/24 11:06:57;;;;;;;17.45;13.55;;;;;;;;;;5141256;27;20322;-82
2023/04/24 11:09:26;;;;;;;16.23;12.98;;;;;;;;;;5141088;27;20027;-82
2023/04/24 11:12:03;;;;;;;16.13;13.45;;;;;;;;;;5139696;27;20066;-82
2023/04/24 11:14:29;;;;;;;16.52;14.13;;;;;;;;;;5140979;27;20071;-82
2023/04/24 11:16:55;;;;;;;22.92;16.42;;;;;;;;;;5139746;27;20031;-82
2023/04/24 11:19:25;;;;;;;28.23;18.63;;;;;;;;;;5140953;27;20023;-82
2023/04/24 11:22:01;;;;;;;28.05;20.60;;;;;;;;;;5140918;27;20391;-82
2023/04/24 11:24:39;;;;;;;25.48;20.25;;;;;;;;;;5140820;27;20023;-82
2023/04/24 11:27:19;;;;;;;19.83;16.45;;;;;;;;;;5140704;27;20091;-82
2023/04/24 11:29:49;;;;;;;21.30;16.80;;;;;;;;;;5140968;27;20031;-82
2023/04/24 11:32:24;;;;;;;21.80;15.95;;;;;;;;;;5139385;27;20035;-82
2023/04/24 11:34:55;;;;;;;20.75;15.90;;;;;;;;;;5139290;27;20023;-82
2023/04/24 11:37:22;;;;;;;22.02;16.02;;;;;;;;;;5139115;27;20027;-82
2023/04/24 11:39:51;;;;;;;21.75;15.18;;;;;;;;;;5140046;27;20019;-82
2023/04/24 11:42:17;;;;;;;21.45;15.77;;;;;;;;;;5140160;27;20035;-82
2023/04/24 11:44:43;;;;;;;22.08;16.60;;;;;;;;;;5139060;27;20122;-82
2023/04/24 11:47:09;;;;;;;20.42;16.50;;;;;;;;;;5140367;27;20020;-82
2023/04/24 11:49:38;;;;;;;19.48;15.75;;;;;;;;;;5140222;27;20023;-82
2023/04/24 11:52:05;;;;;;;19.63;15.45;;;;;;;;;;5140451;27;20027;-82
2023/04/24 11:54:31;;;;;;;17.05;15.23;;;;;;;;;;5140273;27;20019;-82
2023/04/24 11:56:57;;;;;;;20.33;16.35;;;;;;;;;;5140121;27;20023;-82
2023/04/24 11:59:24;;;;;;;18.63;15.65;;;;;;;;;;5140178;27;20027;-82
2023/04/24 12:01:50;;;;;;;21.15;16.80;;;;;;;;;;5140181;27;20092;-81
2023/04/24 12:04:18;;;;;;;18.52;15.02;;;;;;;;;;5139991;27;20053;-81
2023/04/24 12:07:00;;;;;;;18.65;16.05;;;;;;;;;;5138491;27;20087;-81
2023/04/24 12:09:27;;;;;;;18.77;15.70;;;;;;;;;;5139936;27;20098;-82
2023/04/24 12:11:56;;;;;;;20.48;17.27;;;;;;;;;;5139978;27;20031;-81
2023/04/24 12:14:23;;;;;;;22.88;17.45;;;;;;;;;;5139988;27;20039;-82
2023/04/24 12:16:50;;;;;;;23.52;17.50;;;;;;;;;;5139607;27;20061;-82
2023/04/24 12:19:22;;;;;;;22.83;18.63;;;;;;;;;;5139932;27;20022;-82
2023/04/24 12:22:01;;;;;;;21.27;16.63;;;;;;;;;;5139929;27;20019;-82
2023/04/24 12:24:27;;;;;;;21.80;18.67;;;;;;;;;;5139383;27;20019;-82
2023/04/24 12:26:54;;;;;;;50.58;32.95;;;;;;;;;;5139442;27;20421;-82
2023/04/24 12:29:21;;;;;;;56.35;36.15;;;;;;;;;;5139566;27;20038;-82
2023/04/24 12:31:47;;;;;;;43.67;30.88;;;;;;;;;;5139636;27;20034;-82
2023/04/24 12:34:23;;;;;;;27.10;22.05;;;;;;;;;;5139624;27;20309;-82
2023/04/24 12:36:49;;;;;;;30.20;24.60;;;;;;;;;;5139453;27;20031;-82
2023/04/24 12:39:16;;;;;;;25.38;19.60;;;;;;;;;;5137976;27;20027;-82
2023/04/24 12:41:59;;;;;;;23.42;18.45;;;;;;;;;;5139246;27;20412;-82
2023/04/24 12:44:34;;;;;;;22.10;19.55;;;;;;;;;;5138897;27;20027;-82
2023/04/24 12:47:00;;;;;;;20.35;17.33;;;;;;;;;;5139340;27;20095;-82
2023/04/24 12:49:26;;;;;;;22.58;17.45;;;;;;;;;;5139098;27;20023;-82
2023/04/24 12:51:52;;;;;;;19.70;17.13;;;;;;;;;;5136919;27;20031;-82
2023/04/24 12:54:18;;;;;;;22.05;18.42;;;;;;;;;;5137897;27;20138;-82
2023/04/24 12:56:45;;;;;;;21.10;16.90;;;;;;;;;;5138541;27;20023;-82
2023/04/24 12:59:11;;;;;;;22.00;16.77;;;;;;;;;;5139130;27;20029;-82
2023/04/24 13:01:38;;;;;;;19.73;16.73;;;;;;;;;;5139044;27;20019;-82
2023/04/24 13:04:05;;;;;;;17.80;15.75;;;;;;;;;;5138804;27;20022;-82
2023/04/24 13:06:31;;;;;;;18.17;16.30;;;;;;;;;;5138465;27;20302;-82
2023/04/24 13:08:58;;;;;;;19.25;16.80;;;;;;;;;;5138716;27;20050;-82
2023/04/24 13:11:24;;;;;;;21.73;17.00;;;;;;;;;;5137608;27;20027;-82
2023/04/24 13:13:50;;;;;;;21.00;16.65;;;;;;;;;;5138998;27;20358;-82
2023/04/24 13:16:17;;;;;;;21.33;18.42;;;;;;;;;;5138610;27;20035;-82
2023/04/24 13:18:43;;;;;;;21.25;17.10;;;;;;;;;;5137619;27;20405;-82
2023/04/24 13:21:09;;;;;;;20.42;16.77;;;;;;;;;;5138549;27;20533;-82
2023/04/24 13:23:35;;;;;;;17.30;15.45;;;;;;;;;;5138443;27;20023;-82
2023/04/24 13:26:01;;;;;;;19.48;15.82;;;;;;;;;;5137239;27;20031;-82
2023/04/24 13:28:29;;;;;;;19.80;17.20;;;;;;;;;;5138337;27;20047;-82
2023/04/24 13:30:55;;;;;;;23.15;18.30;;;;;;;;;;5138400;27;20088;-82
2023/04/24 13:33:21;;;;;;;20.85;17.13;;;;;;;;;;5138297;27;20069;-82
2023/04/24 13:35:47;;;;;;;21.70;18.83;;;;;;;;;;5137127;27;20420;-82
2023/04/24 13:38:13;;;;;;;20.85;16.45;;;;;;;;;;5138336;27;20019;-82
2023/04/24 13:40:40;;;;;;;21.98;18.10;;;;;;;;;;5138111;27;20038;-82
2023/04/24 13:43:06;;;;;;;19.77;17.70;;;;;;;;;;5138343;27;20027;-82
2023/04/24 13:45:32;;;;;;;20.55;16.77;;;;;;;;;;5136813;27;20047;-82
2023/04/24 13:47:58;;;;;;;21.00;17.70;;;;;;;;;;5138110;27;20054;-82
2023/04/24 13:50:24;;;;;;;24.08;19.73;;;;;;;;;;5137077;27;20064;-82
2023/04/24 13:52:50;;;;;;;21.58;18.38;;;;;;;;;;5114694;28;20469;-84
2023/04/24 13:55:16;;;;;;;22.05;19.10;;;;;;;;;;5107377;28;20066;-84
2023/04/24 13:57:42;;;;;;;21.92;18.73;;;;;;;;;;5107366;28;20031;-85
2023/04/24 14:00:10;;;;;;;22.25;19.25;;;;;;;;;;5103407;28;20062;-85
2023/04/24 14:02:36;;;;;;;25.20;19.77;;;;;;;;;;5097754;28;20016;-83
2023/04/24 14:05:05;;;;;;;24.77;20.23;;;;;;;;;;5101526;28;20024;-87
2023/04/24 14:07:31;;;;;;;27.55;21.38;;;;;;;;;;5100370;28;20012;-82
2023/04/24 14:09:57;;;;;;;24.67;19.40;;;;;;;;;;5102055;28;20028;-85
2023/04/24 14:12:23;;;;;;;27.02;21.27;;;;;;;;;;5107513;28;20047;-85
2023/04/24 14:14:50;;;;;;;26.45;21.63;;;;;;;;;;5101752;28;20059;-85
2023/04/24 14:17:16;;;;;;;24.75;21.45;;;;;;;;;;5100327;28;20032;-85
2023/04/24 14:19:42;;;;;;;32.17;22.95;;;;;;;;;;5101743;28;20094;-82
2023/04/24 14:22:08;;;;;;;36.03;24.00;;;;;;;;;;5100432;28;20036;-85
2023/04/24 14:24:34;;;;;;;29.98;23.33;;;;;;;;;;5101042;28;20024;-84
2023/04/24 14:27:00;;;;;;;25.58;21.35;;;;;;;;;;5101071;28;20059;-84
2023/04/24 14:29:26;;;;;;;25.60;21.83;;;;;;;;;;5101345;28;20032;-85
2023/04/24 14:31:52;;;;;;;29.52;23.83;;;;;;;;;;5101250;28;20031;-84
2023/04/24 14:34:19;;;;;;;32.67;25.88;;;;;;;;;;5100192;28;20028;-85
2023/04/24 14:36:45;;;;;;;31.42;24.88;;;;;;;;;;5099906;28;20028;-84
2023/04/24 14:39:12;;;;;;;34.45;25.75;;;;;;;;;;5100683;28;20024;-85
2023/04/24 14:41:39;;;;;;;33.75;24.40;;;;;;;;;;5100930;28;20035;-85
2023/04/24 14:44:05;;;;;;;29.42;23.40;;;;;;;;;;5099983;28;20032;-85
2023/04/24 14:46:31;;;;;;;29.77;23.75;;;;;;;;;;5099395;28;20048;-86
2023/04/24 14:48:57;;;;;;;28.38;24.10;;;;;;;;;;5101049;28;20034;-85
2023/04/24 14:51:25;;;;;;;28.48;24.27;;;;;;;;;;5099396;28;20374;-85
2023/04/24 14:53:51;;;;;;;26.65;23.77;;;;;;;;;;5100794;28;20048;-85
2023/04/24 14:56:17;;;;;;;28.48;21.80;;;;;;;;;;5099613;28;20107;-85
2023/04/24 14:58:43;;;;;;;25.50;20.95;;;;;;;;;;5100585;28;20422;-85
2023/04/24 15:01:10;;;;;;;35.05;23.15;;;;;;;;;;5099683;28;20028;-85
2023/04/24 15:03:36;;;;;;;38.30;25.88;;;;;;;;;;5100611;28;20098;-86